Time;durP1;ratioP1;P1;durP2;ratioP2;P2;SDS_P1;SDS_P2;PMS_P1;PMS_P2;Temp;Humidity;BMP_temperature;BMP_pressure;BME280_temperature;BME280_humidity;BME280_pressure;Samples;Min_cycle;Max_cycle;Signal;HPM_P1;HPM_P2
2023/10/12 00:00:27;;;;;;;0.43;0.43;;;;;;;16.72;60.94;96886.00;29417;210;63005;-57
2023/10/12 00:01:01;;;;;;;0.40;0.40;;;;;;;16.69;60.93;96881.19;29395;208;63009;-70
2023/10/12 00:01:32;;;;;;;0.40;0.40;;;;;;;16.65;61.38;96885.72;29395;198;63010;-66
2023/10/12 00:02:09;;;;;;;0.40;0.40;;;;;;;16.65;61.31;96879.44;29395;219;63009;-67
2023/10/12 00:02:41;;;;;;;0.40;0.40;;;;;;;16.62;61.07;96891.84;29395;203;63005;-69
2023/10/12 00:03:12;;;;;;;0.40;0.40;;;;;;;16.64;61.04;96889.59;29394;206;64013;-69
2023/10/12 00:03:45;;;;;;;0.40;0.40;;;;;;;16.61;61.26;96884.78;29395;228;63005;-70
2023/10/12 00:04:18;;;;;;;0.40;0.40;;;;;;;16.59;61.38;96886.25;29395;223;63009;-67
2023/10/12 00:05:06;;;;;;;0.50;0.50;;;;;;;16.57;61.64;96892.06;29395;227;63004;-68
2023/10/12 00:05:38;;;;;;;0.40;0.40;;;;;;;16.57;61.62;96889.31;29395;199;63009;-69
2023/10/12 00:06:10;;;;;;;0.40;0.40;;;;;;;16.55;61.47;96891.56;29395;211;63004;-68
2023/10/12 00:06:44;;;;;;;0.40;0.40;;;;;;;16.55;62.01;96888.03;29395;218;63009;-68
2023/10/12 00:07:33;;;;;;;0.40;0.40;;;;;;;16.55;61.80;96897.06;29395;205;63004;-70
2023/10/12 00:08:10;;;;;;;0.45;0.45;;;;;;;16.53;61.64;96893.84;29395;210;63015;-69
2023/10/12 00:08:42;;;;;;;0.40;0.40;;;;;;;16.51;62.06;96893.38;29394;203;64009;-57
2023/10/12 00:09:23;;;;;;;0.40;0.40;;;;;;;16.49;61.73;96886.63;29395;197;63005;-68
2023/10/12 00:11:06;;;;;;;0.50;0.50;;;;;;;16.49;62.01;96889.34;29395;202;63009;-68
2023/10/12 00:11:40;;;;;;;0.40;0.40;;;;;;;16.48;61.93;96894.03;29395;224;63005;-69
2023/10/12 00:12:14;;;;;;;0.40;0.40;;;;;;;16.48;61.89;96893.22;29395;242;63009;-70
2023/10/12 00:12:47;;;;;;;0.40;0.40;;;;;;;16.47;62.10;96889.69;29395;218;63004;-68
2023/10/12 00:13:20;;;;;;;0.40;0.40;;;;;;;16.46;62.38;96888.06;29395;206;63009;-68
2023/10/12 00:13:52;;;;;;;0.40;0.40;;;;;;;16.46;62.22;96888.06;29394;204;64009;-67
2023/10/12 00:14:29;;;;;;;0.40;0.40;;;;;;;16.45;61.92;96886.47;29395;236;63009;-68
2023/10/12 00:15:05;;;;;;;0.40;0.40;;;;;;;16.43;62.16;96884.06;29395;202;63004;-58
2023/10/12 00:15:40;;;;;;;0.40;0.40;;;;;;;16.42;62.26;96881.66;29395;206;63021;-69
2023/10/12 00:16:12;;;;;;;0.40;0.40;;;;;;;16.42;62.55;96881.66;29395;300;63005;-69
2023/10/12 00:16:46;;;;;;;0.40;0.40;;;;;;;16.42;62.48;96884.37;29395;205;63009;-66
2023/10/12 00:17:25;;;;;;;0.40;0.40;;;;;;;16.42;62.28;96876.97;29395;324;63005;-69
2023/10/12 00:18:10;;;;;;;0.40;0.40;;;;;;;16.46;62.74;96887.28;29395;248;63009;-68
2023/10/12 00:18:45;;;;;;;0.45;0.45;;;;;;;16.45;62.23;96881.00;29395;363;63005;-69
2023/10/12 00:19:21;;;;;;;0.40;0.40;;;;;;;16.45;62.33;96886.47;29394;309;64013;-70
2023/10/12 00:19:52;;;;;;;0.50;0.50;;;;;;;16.43;62.08;96883.25;29395;217;63004;-68
2023/10/12 00:20:35;;;;;;;0.47;0.47;;;;;;;16.42;62.38;96882.44;29395;226;63009;-69
2023/10/12 00:21:14;;;;;;;0.43;0.43;;;;;;;16.41;62.64;96877.31;29394;296;64009;-68
2023/10/12 00:21:46;;;;;;;0.40;0.40;;;;;;;16.41;62.53;96874.56;29395;239;63009;-68
2023/10/12 00:22:18;;;;;;;0.40;0.40;;;;;;;16.42;62.57;96882.44;29395;329;63004;-68
2023/10/12 00:22:49;;;;;;;0.40;0.40;;;;;;;16.43;62.58;96880.50;29395;199;63008;-68
2023/10/12 00:23:21;;;;;;;0.47;0.47;;;;;;;16.42;62.37;96876.16;29394;270;64009;-56
2023/10/12 00:23:56;;;;;;;0.40;0.40;;;;;;;16.41;62.96;96874.56;29395;217;63020;-67
2023/10/12 00:24:30;;;;;;;0.40;0.40;;;;;;;16.43;62.26;96877.78;29395;218;63005;-70
2023/10/12 00:25:04;;;;;;;0.40;0.40;;;;;;;16.45;62.30;96878.25;29394;257;64013;-70
2023/10/12 00:25:55;;;;;;;0.40;0.40;;;;;;;16.46;62.49;96879.06;29395;204;63005;-68
2023/10/12 00:26:30;;;;;;;0.40;0.40;;;;;;;16.47;62.33;96877.91;29395;197;63009;-57
2023/10/12 00:27:03;;;;;;;0.40;0.40;;;;;;;16.48;62.31;96874.84;29395;274;63004;-68
2023/10/12 00:27:37;;;;;;;0.40;0.40;;;;;;;16.48;62.87;96874.06;29395;199;63009;-68
2023/10/12 00:28:09;;;;;;;0.40;0.40;;;;;;;16.47;62.22;96875.19;29395;216;63004;-68
2023/10/12 00:28:45;;;;;;;0.40;0.40;;;;;;;16.46;62.17;96870.84;29394;220;64013;-67
2023/10/12 00:29:18;;;;;;;0.40;0.40;;;;;;;16.45;62.49;96870.03;29395;225;63014;-70
2023/10/12 00:29:51;;;;;;;0.40;0.40;;;;;;;16.45;62.57;96875.50;29395;240;63008;-69
2023/10/12 00:30:24;;;;;;;0.40;0.40;;;;;;;16.44;62.29;96873.91;29395;240;63011;-72
2023/10/12 00:31:05;;;;;;;0.40;0.40;;;;;;;16.46;62.93;96870.84;29395;219;63009;-70
2023/10/12 00:31:42;;;;;;;0.40;0.40;;;;;;;16.49;62.78;96867.44;29416;250;64009;-68
2023/10/12 00:32:17;;;;;;;0.40;0.40;;;;;;;16.50;62.85;96864.38;29395;196;63009;-69
2023/10/12 00:32:51;;;;;;;2.28;1.73;;;;;;;16.50;62.28;96867.09;29395;216;63005;-68
2023/10/12 00:33:23;;;;;;;0.40;0.40;;;;;;;16.47;62.73;96865.03;29395;226;63009;-69
2023/10/12 00:33:57;;;;;;;0.40;0.40;;;;;;;16.50;62.56;96867.09;29395;239;63004;-57
2023/10/12 00:34:34;;;;;;;0.40;0.40;;;;;;;16.50;62.53;96866.31;29395;253;63009;-67
2023/10/12 00:35:19;;;;;;;0.60;0.60;;;;;;;16.45;62.48;96863.75;29395;211;63004;-67
2023/10/12 00:36:00;;;;;;;0.40;0.40;;;;;;;16.43;62.71;96856.66;29395;218;63009;-69
2023/10/12 00:36:36;;;;;;;0.40;0.40;;;;;;;16.43;62.80;96866.81;29394;198;63999;-67
2023/10/12 00:37:09;;;;;;;0.40;0.40;;;;;;;16.41;63.18;96863.63;29395;216;63008;-67
2023/10/12 00:37:43;;;;;;;0.40;0.40;;;;;;;16.38;62.80;96859.59;29395;236;63004;-71
2023/10/12 00:38:18;;;;;;;0.40;0.40;;;;;;;16.36;63.12;96861.06;29395;354;63009;-70
2023/10/12 00:38:51;;;;;;;0.40;0.40;;;;;;;16.35;62.63;96859.44;29395;340;63005;-69
2023/10/12 00:39:40;;;;;;;0.68;0.68;;;;;;;16.35;62.88;96859.44;29394;197;64013;-68
2023/10/12 00:40:32;;;;;;;0.40;0.40;;;;;;;16.36;63.54;96866.53;29394;327;64009;-58
2023/10/12 00:41:04;;;;;;;0.40;0.40;;;;;;;16.36;63.02;96866.53;29417;238;63009;-69
2023/10/12 00:41:38;;;;;;;0.40;0.40;;;;;;;16.34;63.11;96863.31;29394;205;64009;-68
2023/10/12 00:42:11;;;;;;;0.40;0.40;;;;;;;16.30;63.33;96867.84;29395;213;63009;-68
2023/10/12 00:42:51;;;;;;;0.40;0.40;;;;;;;16.29;63.38;96861.56;29395;211;63000;-68
2023/10/12 00:43:27;;;;;;;0.40;0.40;;;;;;;16.29;63.37;96860.75;29395;215;63009;-57
2023/10/12 00:44:12;;;;;;;0.40;0.40;;;;;;;16.29;63.48;96867.03;29394;210;64008;-67
2023/10/12 00:44:49;;;;;;;0.50;0.50;;;;;;;16.29;63.54;96858.03;29395;215;63005;-64
2023/10/12 00:45:31;;;;;;;0.40;0.40;;;;;;;16.32;63.21;96860.09;29395;219;63005;-66
2023/10/12 00:47:10;;;;;;;0.40;0.40;;;;;;;16.27;63.01;96857.59;29395;225;63005;-57
2023/10/12 00:47:48;;;;;;;0.50;0.50;;;;;;;16.25;63.57;96859.84;29395;207;63009;-58
2023/10/12 00:48:23;;;;;;;0.50;0.50;;;;;;;16.23;63.32;96862.91;29395;311;63012;-70
2023/10/12 00:49:18;;;;;;;0.40;0.40;;;;;;;16.22;63.88;96861.31;29395;199;63009;-67
2023/10/12 00:49:50;;;;;;;0.40;0.40;;;;;;;16.21;64.09;96861.63;29394;304;64009;-68
2023/10/12 00:50:22;;;;;;;0.40;0.40;;;;;;;16.21;63.67;96858.91;29395;203;63009;-68
2023/10/12 00:50:56;;;;;;;0.40;0.40;;;;;;;16.19;63.87;96855.69;29395;359;63008;-70
2023/10/12 00:51:31;;;;;;;0.40;0.40;;;;;;;16.20;64.06;96866.31;29395;197;63008;-68
2023/10/12 00:52:13;;;;;;;0.50;0.50;;;;;;;16.21;63.69;96858.91;29395;294;63004;-56
2023/10/12 00:52:55;;;;;;;0.40;0.40;;;;;;;16.20;64.02;96862.78;29395;241;63009;-66
2023/10/12 00:53:33;;;;;;;0.40;0.40;;;;;;;16.19;63.56;96855.69;29395;244;63005;-56
2023/10/12 00:54:10;;;;;;;0.40;0.40;;;;;;;16.22;63.77;96857.78;29395;196;63009;-56
2023/10/12 00:54:49;;;;;;;0.40;0.40;;;;;;;16.21;64.10;96854.22;29394;228;64009;-67
2023/10/12 00:55:21;;;;;;;0.50;0.50;;;;;;;16.26;63.94;96861.47;29395;224;63009;-67
2023/10/12 00:55:55;;;;;;;0.50;0.50;;;;;;;16.27;63.56;96852.13;29395;222;63005;-56
2023/10/12 00:56:31;;;;;;;0.40;0.40;;;;;;;16.27;63.55;96852.13;29395;202;63026;-68
2023/10/12 00:57:03;;;;;;;0.40;0.40;;;;;;;16.25;63.41;96854.38;29395;202;63004;-69
2023/10/12 00:57:35;;;;;;;0.40;0.40;;;;;;;16.25;64.04;96859.84;29395;202;63009;-67
2023/10/12 00:58:10;;;;;;;0.40;0.40;;;;;;;16.24;63.80;96855.50;29395;215;63004;-69
2023/10/12 00:58:44;;;;;;;0.40;0.40;;;;;;;16.22;63.97;96855.03;29395;196;63009;-67
2023/10/12 00:59:17;;;;;;;0.40;0.40;;;;;;;16.23;63.53;96851.16;29395;332;63004;-56
2023/10/12 00:59:51;;;;;;;0.40;0.40;;;;;;;16.24;63.84;96852.78;29394;202;64014;-70
2023/10/12 01:00:35;;;;;;;0.40;0.40;;;;;;;16.26;63.43;96855.97;29395;219;63005;-71
2023/10/12 01:01:08;;;;;;;0.40;0.40;;;;;;;16.23;63.81;96848.44;29395;213;63027;-56
2023/10/12 01:01:40;;;;;;;0.50;0.50;;;;;;;16.28;63.79;96851.78;29395;302;63005;-57
2023/10/12 01:02:12;;;;;;;0.40;0.40;;;;;;;16.29;63.86;96850.63;29395;218;63009;-56
2023/10/12 01:03:06;;;;;;;0.65;0.65;;;;;;;16.29;63.55;96856.09;29395;211;63005;-67
2023/10/12 01:03:39;;;;;;;;;;;;;;;16.26;63.95;96850.50;29996;983;6004;-67
2023/10/12 01:04:15;;;;;;;0.60;0.60;;;;;;;16.24;63.76;96852.78;29400;206;63009;-68
2023/10/12 01:04:48;;;;;;;0.40;0.40;;;;;;;16.22;63.95;96849.56;29395;290;63004;-56
2023/10/12 01:05:22;;;;;;;0.40;0.40;;;;;;;16.23;63.54;96851.16;29394;224;64013;-67
2023/10/12 01:06:15;;;;;;;0.40;0.40;;;;;;;16.26;63.78;96850.50;29395;212;63004;-65
2023/10/12 01:06:59;;;;;;;0.40;0.40;;;;;;;16.29;63.82;96847.88;29395;236;63008;-67
2023/10/12 01:07:34;;;;;;;0.40;0.40;;;;;;;16.27;63.98;96843.91;29395;274;63005;-70
2023/10/12 01:08:06;;;;;;;0.40;0.40;;;;;;;16.24;63.79;96836.34;29395;338;63009;-69
2023/10/12 01:08:42;;;;;;;0.40;0.40;;;;;;;16.22;64.16;96838.59;29395;218;63005;-57
2023/10/12 01:09:20;;;;;;;0.50;0.50;;;;;;;16.24;63.56;96848.09;29395;222;63009;-56
2023/10/12 01:10:03;;;;;;;0.40;0.40;;;;;;;16.24;63.95;96839.09;29395;343;63005;-67
2023/10/12 01:10:40;;;;;;;0.40;0.40;;;;;;;16.21;64.22;96847.94;29394;314;64013;-55
2023/10/12 01:11:26;;;;;;;0.40;0.40;;;;;;;16.16;64.08;96843.47;29395;203;63015;-68
2023/10/12 01:12:00;;;;;;;0.40;0.40;;;;;;;16.12;64.05;96838.97;29395;251;63009;-68
2023/10/12 01:12:35;;;;;;;0.40;0.40;;;;;;;16.12;64.24;96849.91;29395;326;63004;-56
2023/10/12 01:13:08;;;;;;;0.40;0.40;;;;;;;16.13;64.29;96846.06;29395;328;63016;-57
2023/10/12 01:13:43;;;;;;;0.50;0.50;;;;;;;16.20;64.33;96835.41;29395;294;63004;-67
2023/10/12 01:14:15;;;;;;;0.43;0.43;;;;;;;16.19;63.87;96839.25;29395;291;63008;-68
2023/10/12 01:14:54;;;;;;;1.70;1.70;;;;;;;16.18;64.17;96848.59;29395;255;63004;-70
2023/10/12 01:15:29;;;;;;;0.40;0.40;;;;;;;16.13;64.07;96835.91;29395;359;63009;-69
2023/10/12 01:16:15;;;;;;;0.50;0.50;;;;;;;16.16;64.15;96848.13;29394;201;64009;-66
2023/10/12 01:16:57;;;;;;;0.50;0.50;;;;;;;16.19;64.09;96828.31;29395;251;63009;-56
2023/10/12 01:17:34;;;;;;;0.40;0.40;;;;;;;16.16;63.75;96835.25;29395;357;63005;-70
2023/10/12 01:18:11;;;;;;;0.40;0.40;;;;;;;16.15;64.00;96835.56;29395;352;63009;-68
2023/10/12 01:18:45;;;;;;;0.47;0.47;;;;;;;16.14;64.24;96836.72;29395;197;63005;-70
2023/10/12 01:19:22;;;;;;;0.60;0.60;;;;;;;16.17;64.13;96847.00;29395;334;63009;-68
2023/10/12 01:19:53;;;;;;;0.40;0.40;;;;;;;16.15;64.14;96838.31;29394;202;64009;-66
2023/10/12 01:20:32;;;;;;;0.40;0.40;;;;;;;16.12;64.26;96838.97;29395;272;63009;-57
2023/10/12 01:21:11;;;;;;;0.50;0.50;;;;;;;16.16;64.26;96842.66;29395;222;63004;-66
2023/10/12 01:21:44;;;;;;;0.40;0.40;;;;;;;16.17;64.20;96842.34;29395;222;63008;-55
2023/10/12 01:22:16;;;;;;;0.40;0.40;;;;;;;16.17;64.49;96842.34;29395;218;63004;-68
2023/10/12 01:22:50;;;;;;;0.40;0.40;;;;;;;16.17;63.83;96833.31;29395;197;63009;-64
2023/10/12 01:23:22;;;;;;;0.40;0.40;;;;;;;16.17;64.13;96841.53;29395;270;63005;-58
2023/10/12 01:23:53;;;;;;;0.40;0.40;;;;;;;16.16;64.31;96834.44;29395;230;63009;-58
2023/10/12 01:24:30;;;;;;;0.40;0.40;;;;;;;16.18;64.10;96843.13;29394;197;64009;-56
2023/10/12 01:25:10;;;;;;;0.40;0.40;;;;;;;16.21;63.98;96837.00;29395;317;63009;-66
2023/10/12 01:25:44;;;;;;;0.40;0.40;;;;;;;16.20;63.95;96847.16;29479;197;125013;-68
2023/10/12 01:26:15;;;;;;;0.40;0.40;;;;;;;16.19;63.65;96842.00;29395;205;63009;-70
2023/10/12 01:26:49;;;;;;;0.50;0.50;;;;;;;16.23;64.19;96837.47;29395;244;63004;-67
2023/10/12 01:27:21;;;;;;;0.40;0.40;;;;;;;16.23;63.54;96840.22;29395;215;63009;-55
2023/10/12 01:27:56;;;;;;;0.40;0.40;;;;;;;16.24;63.88;96836.34;29395;344;63004;-67
2023/10/12 01:28:32;;;;;;;0.50;0.50;;;;;;;16.25;63.80;96844.22;29395;254;63009;-67
2023/10/12 01:29:04;;;;;;;0.40;0.40;;;;;;;16.27;63.79;96841.16;29395;290;63004;-67
2023/10/12 01:29:36;;;;;;;0.40;0.40;;;;;;;16.29;63.68;96841.59;29394;212;64013;-67
2023/10/12 01:30:22;;;;;;;0.40;0.40;;;;;;;16.30;63.67;96841.28;29394;330;64009;-68
2023/10/12 01:30:54;;;;;;;0.43;0.43;;;;;;;16.32;63.56;96838.22;29395;225;63009;-67
2023/10/12 01:31:29;;;;;;;0.50;0.50;;;;;;;16.34;63.49;96842.22;29395;259;63005;-55
2023/10/12 01:33:04;;;;;;;0.50;0.50;;;;;;;16.36;63.29;96829.00;29395;260;63008;-66
2023/10/12 01:33:41;;;;;;;0.40;0.40;;;;;;;16.33;63.64;96834.34;29395;212;63009;-67
2023/10/12 01:34:13;;;;;;;0.55;0.55;;;;;;;16.32;63.47;96832.72;29395;284;63004;-56
2023/10/12 01:34:57;;;;;;;0.40;0.40;;;;;;;16.34;63.19;96830.47;29395;202;63009;-68
2023/10/12 01:35:33;;;;;;;0.50;0.50;;;;;;;16.31;63.46;96831.13;29394;196;64009;-68
2023/10/12 01:36:05;;;;;;;0.50;0.50;;;;;;;16.29;63.57;96839.66;29394;219;64008;-66
2023/10/12 01:36:37;;;;;;;0.50;0.50;;;;;;;16.28;63.60;96840.03;29395;225;63004;-67
2023/10/12 01:37:26;;;;;;;0.40;0.40;;;;;;;16.27;63.62;96831.00;29395;226;63009;-68
2023/10/12 01:38:00;;;;;;;0.40;0.40;;;;;;;16.26;63.86;96834.06;29395;295;63005;-56
2023/10/12 01:38:37;;;;;;;0.40;0.40;;;;;;;16.29;63.50;96833.38;29395;294;63009;-68
2023/10/12 01:39:13;;;;;;;0.40;0.40;;;;;;;16.29;63.59;96834.19;29395;205;63005;-67
2023/10/12 01:39:54;;;;;;;0.57;0.57;;;;;;;16.27;63.57;96836.50;29395;326;63009;-70
2023/10/12 01:41:26;;;;;;;0.40;0.40;;;;;;;16.21;63.95;96831.53;29394;272;64013;-70
2023/10/12 01:41:57;;;;;;;0.40;0.40;;;;;;;16.22;64.11;96838.59;29395;248;63004;-70
2023/10/12 01:42:51;;;;;;;0.47;0.47;;;;;;;16.21;64.02;96837.00;29395;206;63009;-68
2023/10/12 01:43:27;;;;;;;0.40;0.40;;;;;;;16.22;64.00;96833.94;29395;262;63004;-68
2023/10/12 01:43:58;;;;;;;0.40;0.40;;;;;;;16.21;63.87;96837.00;29395;205;63008;-66
2023/10/12 01:44:29;;;;;;;0.40;0.40;;;;;;;16.21;63.91;96837.00;29395;315;63005;-66
2023/10/12 01:45:04;;;;;;;0.40;0.40;;;;;;;16.20;63.94;96835.41;29395;239;63009;-68
2023/10/12 01:45:41;;;;;;;0.47;0.47;;;;;;;16.18;64.19;96837.66;29395;202;63005;-69
2023/10/12 01:46:14;;;;;;;0.40;0.40;;;;;;;16.16;64.02;96834.44;29396;238;63009;-67
2023/10/12 01:46:49;;;;;;;0.50;0.50;;;;;;;16.12;64.16;96838.97;29394;366;64009;-56
2023/10/12 01:47:20;;;;;;;0.47;0.47;;;;;;;16.11;64.26;96834.62;29395;226;63009;-69
2023/10/12 01:47:55;;;;;;;0.40;0.40;;;;;;;16.14;64.50;96839.44;29395;214;63005;-68
2023/10/12 01:48:33;;;;;;;0.40;0.40;;;;;;;16.12;64.50;96833.50;29394;261;64013;-56
2023/10/12 01:49:10;;;;;;;0.40;0.40;;;;;;;16.08;64.34;96836.88;29395;270;63004;-69
2023/10/12 01:49:41;;;;;;;0.40;0.40;;;;;;;16.07;64.42;96835.28;29395;318;63009;-55
2023/10/12 01:50:13;;;;;;;0.40;0.40;;;;;;;16.08;64.83;96844.28;29395;350;63010;-69
2023/10/12 01:50:47;;;;;;;0.47;0.47;;;;;;;16.06;64.22;96841.88;29395;202;63009;-67
2023/10/12 01:51:24;;;;;;;0.40;0.40;;;;;;;16.06;64.28;96841.09;29395;267;63004;-69
2023/10/12 01:51:57;;;;;;;0.40;0.40;;;;;;;16.05;64.45;96837.53;29394;255;64014;-67
2023/10/12 01:52:28;;;;;;;0.40;0.40;;;;;;;16.04;64.79;96838.69;29395;213;63005;-68
2023/10/12 01:53:02;;;;;;;0.40;0.40;;;;;;;16.02;64.67;96831.94;29395;229;63009;-68
2023/10/12 01:53:33;;;;;;;0.40;0.40;;;;;;;15.99;64.99;96841.59;29395;227;63005;-69
2023/10/12 01:54:06;;;;;;;0.40;0.40;;;;;;;15.97;65.23;96837.56;29395;209;63009;-70
2023/10/12 01:54:43;;;;;;;0.40;0.40;;;;;;;15.95;65.11;96842.56;29395;220;63005;-69
2023/10/12 01:55:22;;;;;;;0.40;0.40;;;;;;;15.97;65.10;96832.91;29395;222;63009;-69
2023/10/12 01:55:58;;;;;;;0.50;0.50;;;;;;;15.98;65.15;96839.19;29395;220;63003;-68
2023/10/12 01:56:31;;;;;;;0.40;0.40;;;;;;;15.97;65.09;96834.84;29395;232;63009;-67
2023/10/12 01:57:03;;;;;;;0.40;0.40;;;;;;;15.96;64.96;96831.31;29394;264;64009;-70
2023/10/12 01:57:44;;;;;;;0.40;0.40;;;;;;;15.97;64.73;96832.09;29395;230;63020;-67
2023/10/12 01:58:15;;;;;;;;;;;;;;;15.98;65.03;96828.25;29996;983;6000;-68
2023/10/12 01:58:51;;;;;;;0.40;0.40;;;;;;;15.99;64.94;96836.13;29422;202;63009;-68
2023/10/12 01:59:25;;;;;;;0.40;0.40;;;;;;;15.99;65.13;96836.13;29395;229;63009;-68
2023/10/12 01:59:58;;;;;;;0.40;0.40;;;;;;;16.00;64.95;96837.72;29395;197;63005;-66
2023/10/12 02:01:24;;;;;;;0.40;0.40;;;;;;;16.08;64.83;96833.34;29417;216;63005;-66
2023/10/12 02:02:13;;;;;;;0.40;0.40;;;;;;;16.08;64.71;96834.16;29395;248;63009;-72
2023/10/12 02:02:51;;;;;;;0.40;0.40;;;;;;;16.11;64.72;96838.16;29394;351;64009;-68
2023/10/12 02:03:32;;;;;;;0.40;0.40;;;;;;;16.12;64.77;96836.22;29395;225;63009;-69
2023/10/12 02:04:06;;;;;;;;;;;;;;;16.14;64.76;96832.03;29996;987;6000;-69
2023/10/12 02:04:40;;;;;;;0.40;0.40;;;;;;;16.15;64.63;96838.31;29400;232;63004;-68
2023/10/12 02:05:23;;;;;;;0.40;0.40;;;;;;;16.16;64.35;96829.78;29395;208;63015;-69
2023/10/12 02:06:13;;;;;;;0.40;0.40;;;;;;;16.19;64.49;96833.78;29395;223;63004;-70
2023/10/12 02:06:48;;;;;;;0.40;0.40;;;;;;;16.19;64.79;96828.31;29395;303;63008;-69
2023/10/12 02:07:19;;;;;;;0.40;0.40;;;;;;;16.21;64.37;96831.53;29395;330;63005;-69
2023/10/12 02:07:53;;;;;;;0.30;0.30;;;;;;;16.21;64.54;96832.31;29394;237;64014;-69
2023/10/12 02:08:32;;;;;;;0.30;0.30;;;;;;;16.23;64.49;96829.25;29395;203;63005;-57
2023/10/12 02:09:10;;;;;;;0.40;0.40;;;;;;;16.25;64.18;96824.25;29395;338;63024;-68
2023/10/12 02:09:42;;;;;;;0.40;0.40;;;;;;;16.26;64.46;96831.34;29395;327;63005;-67
2023/10/12 02:10:14;;;;;;;0.40;0.40;;;;;;;16.28;64.31;96826.34;29395;298;63009;-70
2023/10/12 02:10:58;;;;;;;0.40;0.40;;;;;;;16.30;64.68;96829.53;29395;234;63005;-69
2023/10/12 02:12:29;;;;;;;0.40;0.40;;;;;;;16.34;64.12;96819.50;29395;255;63008;-66
2023/10/12 02:13:01;;;;;;;0.40;0.40;;;;;;;16.35;64.03;96816.44;29394;203;64013;-70
2023/10/12 02:13:36;;;;;;;0.30;0.30;;;;;;;16.38;63.95;96820.47;29395;202;63010;-67
2023/10/12 02:14:11;;;;;;;0.35;0.35;;;;;;;16.40;63.80;96812.72;29394;196;64013;-68
2023/10/12 02:14:42;;;;;;;0.40;0.40;;;;;;;16.42;63.84;96821.41;29395;330;63005;-56
2023/10/12 02:15:15;;;;;;;0.35;0.35;;;;;;;16.43;63.77;96823.00;29395;243;63009;-67
2023/10/12 02:15:50;;;;;;;0.40;0.40;;;;;;;16.49;64.11;96820.88;29395;217;63005;-65
2023/10/12 02:17:25;;;;;;;0.40;0.40;;;;;;;16.57;62.88;96822.75;29394;197;64009;-69
2023/10/12 02:17:59;;;;;;;0.40;0.40;;;;;;;16.58;63.07;96819.69;29395;238;63009;-68
2023/10/12 02:18:33;;;;;;;0.40;0.40;;;;;;;16.59;63.38;96815.81;29395;215;63005;-69
2023/10/12 02:19:07;;;;;;;0.40;0.40;;;;;;;16.62;62.77;96817.91;29395;247;63009;-70
2023/10/12 02:19:42;;;;;;;0.40;0.40;;;;;;;16.64;62.83;96817.56;29395;222;63004;-68
2023/10/12 02:20:14;;;;;;;0.40;0.40;;;;;;;16.67;62.83;96817.72;29395;209;63009;-68
2023/10/12 02:21:07;;;;;;;0.40;0.40;;;;;;;16.69;63.11;96820.91;29395;218;63004;-67
2023/10/12 02:21:40;;;;;;;0.40;0.40;;;;;;;16.73;62.77;96821.06;29395;260;63008;-68
2023/10/12 02:22:24;;;;;;;0.40;0.40;;;;;;;16.74;62.23;96812.50;29394;306;64009;-67
2023/10/12 02:22:56;;;;;;;0.40;0.40;;;;;;;16.75;62.37;96816.84;29395;212;63009;-67
2023/10/12 02:23:36;;;;;;;0.40;0.40;;;;;;;16.75;62.41;96819.59;29395;279;63005;-68
2023/10/12 02:24:12;;;;;;;0.40;0.40;;;;;;;16.77;62.39;96821.19;29395;224;63009;-68
2023/10/12 02:24:44;;;;;;;0.40;0.40;;;;;;;16.79;62.52;96816.19;29395;199;63017;-67
2023/10/12 02:25:19;;;;;;;0.40;0.40;;;;;;;16.80;61.86;96812.31;29395;221;63009;-70
2023/10/12 02:25:53;;;;;;;0.40;0.40;;;;;;;16.80;62.52;96817.78;29395;328;63016;-69
2023/10/12 02:26:36;;;;;;;0.30;0.30;;;;;;;16.82;62.16;96823.72;29395;380;63009;-69
2023/10/12 02:27:07;;;;;;;0.40;0.40;;;;;;;16.83;62.19;96814.37;29395;285;63014;-68
2023/10/12 02:27:41;;;;;;;0.35;0.35;;;;;;;16.83;62.55;96826.12;29394;226;64013;-67
2023/10/12 02:28:16;;;;;;;0.40;0.40;;;;;;;16.84;62.45;96821.47;29395;292;63007;-69
2023/10/12 02:28:56;;;;;;;0.30;0.30;;;;;;;16.85;62.63;96823.06;29417;233;63008;-68
2023/10/12 02:29:29;;;;;;;0.40;0.40;;;;;;;16.85;62.22;96831.28;29395;209;63004;-68
2023/10/12 02:30:01;;;;;;;0.40;0.40;;;;;;;16.85;61.72;96823.06;29395;252;63009;-68
2023/10/12 02:30:34;;;;;;;0.40;0.40;;;;;;;16.85;62.28;96825.81;29395;212;63005;-70
2023/10/12 02:31:06;;;;;;;0.40;0.40;;;;;;;16.83;62.84;96830.81;29395;209;63009;-67
2023/10/12 02:31:45;;;;;;;0.30;0.30;;;;;;;16.83;62.41;96826.12;29395;202;63005;-70
2023/10/12 02:32:22;;;;;;;0.40;0.40;;;;;;;16.85;62.22;96821.13;29395;256;63009;-69
2023/10/12 02:33:06;;;;;;;0.32;0.32;;;;;;;16.88;62.18;96819.66;29394;198;64009;-69
2023/10/12 02:33:38;;;;;;;0.30;0.30;;;;;;;16.88;61.74;96822.41;29395;289;63009;-70
2023/10/12 02:34:16;;;;;;;0.40;0.40;;;;;;;16.86;61.90;96824.66;29395;209;63004;-66
2023/10/12 02:34:53;;;;;;;0.40;0.40;;;;;;;16.85;61.97;96823.06;29394;197;64013;-67
2023/10/12 02:35:24;;;;;;;0.40;0.40;;;;;;;16.85;61.89;96817.59;29395;364;63004;-68
2023/10/12 02:35:55;;;;;;;0.40;0.40;;;;;;;16.86;61.54;96822.72;29395;202;63008;-68
2023/10/12 02:36:28;;;;;;;0.30;0.30;;;;;;;16.86;61.36;96820.00;29395;218;63004;-67
2023/10/12 02:37:00;;;;;;;0.40;0.40;;;;;;;16.88;61.68;96822.41;29394;244;64013;-68
2023/10/12 02:37:31;;;;;;;0.32;0.32;;;;;;;16.89;61.47;96824.81;29395;273;63005;-69
2023/10/12 02:38:06;;;;;;;0.30;0.30;;;;;;;16.89;61.90;96818.53;29395;227;63009;-70
2023/10/12 02:38:42;;;;;;;0.30;0.30;;;;;;;16.89;62.08;96821.25;29395;217;63005;-71
2023/10/12 02:39:21;;;;;;;0.30;0.30;;;;;;;16.90;61.65;96817.38;29395;230;63009;-70
2023/10/12 02:39:54;;;;;;;0.40;0.40;;;;;;;16.91;61.64;96821.72;29395;202;63005;-69
2023/10/12 02:40:26;;;;;;;0.30;0.30;;;;;;;16.93;61.59;96819.47;29395;209;63009;-70
2023/10/12 02:40:59;;;;;;;0.30;0.30;;;;;;;16.94;61.14;96815.59;29395;232;63004;-57
2023/10/12 02:41:34;;;;;;;0.40;0.40;;;;;;;16.95;61.31;96819.94;29395;203;63009;-67
2023/10/12 02:42:21;;;;;;;0.40;0.40;;;;;;;16.93;61.68;96814.78;29394;217;64009;-67
2023/10/12 02:42:53;;;;;;;0.40;0.40;;;;;;;16.92;61.34;96812.38;29395;239;63009;-68
2023/10/12 02:43:27;;;;;;;0.30;0.30;;;;;;;16.91;61.43;96817.06;29395;364;63004;-70
2023/10/12 02:44:11;;;;;;;0.40;0.40;;;;;;;16.92;61.60;96820.59;29395;317;63009;-67
2023/10/12 02:45:00;;;;;;;0.40;0.40;;;;;;;16.90;61.53;96807.22;29395;215;63005;-70
2023/10/12 02:45:34;;;;;;;0.40;0.40;;;;;;;16.91;61.64;96810.78;29394;239;64013;-69
2023/10/12 02:46:11;;;;;;;0.40;0.40;;;;;;;16.90;61.65;96814.66;29395;321;63005;-68
2023/10/12 02:46:59;;;;;;;0.30;0.30;;;;;;;16.89;61.75;96818.53;29395;219;63009;-57
2023/10/12 02:47:30;;;;;;;0.30;0.30;;;;;;;16.89;61.75;96813.03;29395;328;63005;-66
2023/10/12 02:48:06;;;;;;;0.30;0.30;;;;;;;16.89;61.33;96813.84;29394;198;64013;-68
2023/10/12 02:48:38;;;;;;;0.40;0.40;;;;;;;16.89;61.33;96819.31;29395;231;63004;-66
2023/10/12 02:49:13;;;;;;;0.30;0.30;;;;;;;16.92;61.48;96813.19;29395;328;63009;-68
2023/10/12 02:49:46;;;;;;;0.30;0.30;;;;;;;16.93;61.31;96803.00;29395;232;63004;-70
2023/10/12 02:50:29;;;;;;;0.30;0.30;;;;;;;16.92;61.60;96815.13;29395;267;63009;-69
2023/10/12 02:51:06;;;;;;;0.30;0.30;;;;;;;16.92;61.64;96801.41;29395;212;63004;-70
2023/10/12 02:51:41;;;;;;;0.40;0.40;;;;;;;16.92;61.58;96810.44;29395;219;63009;-68
2023/10/12 02:52:14;;;;;;;0.30;0.30;;;;;;;16.91;61.45;96813.50;29395;203;63005;-66
2023/10/12 02:52:52;;;;;;;0.40;0.40;;;;;;;16.94;61.28;96804.62;29394;228;64014;-71
2023/10/12 02:53:30;;;;;;;0.30;0.30;;;;;;;16.95;61.43;96806.22;29394;200;64009;-68
2023/10/12 02:54:04;;;;;;;0.40;0.40;;;;;;;16.98;61.40;96800.84;29395;271;63009;-69
2023/10/12 02:54:50;;;;;;;0.30;0.30;;;;;;;16.97;60.98;96810.22;29395;236;63005;-67
2023/10/12 02:55:26;;;;;;;0.30;0.30;;;;;;;16.97;60.97;96806.69;29395;218;63009;-69
2023/10/12 02:56:00;;;;;;;0.30;0.30;;;;;;;16.99;60.89;96807.13;29395;240;63004;-71
2023/10/12 02:56:32;;;;;;;0.40;0.40;;;;;;;16.98;60.69;96811.03;29395;213;63009;-70
2023/10/12 02:57:04;;;;;;;0.40;0.40;;;;;;;16.97;61.10;96809.44;29395;206;63004;-68
2023/10/12 02:57:37;;;;;;;0.40;0.40;;;;;;;16.98;60.96;96802.81;29395;205;63023;-68
2023/10/12 02:59:08;;;;;;;0.40;0.40;;;;;;;16.93;61.51;96813.97;29395;225;63009;-69
2023/10/12 02:59:49;;;;;;;0.40;0.40;;;;;;;16.93;61.29;96816.72;29395;226;63016;-56